Terminal Aerodrome Forecast
Issued by NWS

Home | Current Version | Previous Version | Text Only | Print | Product List | Glossary On
Versions: 1 2 3 4 5 6 7 8 9 10 11 12 13
000
FTUS44 KEPZ 031700
TAFTCS
TAF
KTCS 031732Z 0318/0418 18006KT P6SM SCT090 SCT150
     FM032100 22013G22KT P6SM VCTS SCT090CB BKN150
     FM040200 26008KT P6SM BKN090
     FM040800 31006KT P6SM SCT100
     FM041300 VRB04KT P6SM FEW100=

USA.gov is the U.S. government's official web portal to all federal, state and local government web resources and services.